Portada
METAR-TAF:

METAR-TAF

Aeroports :

Providenciales, Illes Turks i Caicos

latitud: 21-46-25N, longitud: 072-15-57W, altitud: 5 m

Observació

L'informe es va fer fa 23 minuts, a les 17:00 UTC
Vent 5 kt del Sud/Sud-Est
Temperatura 28°C
Humitat 62%
Pressió 1014 hPa
Visibilitat 10 km o més
Núvols disperses a una alçada de 1500 ft

METAR: MBPV 281700Z 16005KT 9999 SCT015 28/20 Q1014

Hora: 12:23 (17:23 UTC)

Pronòstic

L'informe es va fer fa 6 hores i 23 minuts, a les 11:00 UTC
Pronòstic vàlid del 28 a les 12 UTC al 29 a les 12 UTC
Vent 4 kt del Est
Visibilitat 10 km o més
Escasses núvols a una alçada de 1800 ft
Evolucionant progressivament
l' 28 a les 16 UTC al 28 a les 18 UTC
Vent 10 kt del Est/Sud-Est
Núvols disperses a una alçada de 2000 ft

TAF: MBPV 281100Z 2812/2912 10004KT 9999 FEW018 BECMG 2816/2818 12010KT SCT020

Observacions i pronòstics meteorològics de més de 4000 aeroports (METAR i TAF).

Les estacions disponibles són els punts grocs i vermells al mapa.

Posi el ratolí al punt desitjat per veure el nom de l'estació.

Feu clic per veure les observacions i els pronòstics meteorològics.

Per canviar el mapa: feu clic els botons verds amb una creu de color negre per apropar; al botó verd amb un guió per allunyar la imatge; o en les fletxes verdes per a mapes adjacents.


METAR-TAF: